MRN77 LESO-LEXJ
Flight info
| Callsign | MRN77 |
|---|---|
| Flight time | 0h 35m |
| Altitude | 8000 |
| Route | BLV |
| Aircraft | C208/L-SDFGR/C |
Departure
| Time | 2026-05-08 13:58 |
|---|---|
| Airport | San Sebastián Airport (LESO) |
Arrival
| Time | 2026-05-08 14:34 |
|---|---|
| Airport | Seve Ballesteros-Santander Airport (LEXJ) |
| Time | Latitude | Longitude | Altitude | Speed | Heading |
|---|---|---|---|---|---|
| 2026-05-08 13:47 | 43.35705 | -1.79162 | 16 ft | 0 kts | 39° |
| 2026-05-08 13:54 | 43.35719 | -1.79144 | 16 ft | 6 kts | 72° |
| 2026-05-08 13:55 | 43.35723 | -1.79086 | 16 ft | 13 kts | 88° |
| 2026-05-08 13:55 | 43.35767 | -1.78943 | 17 ft | 22 kts | 47° |
| 2026-05-08 13:55 | 43.36038 | -1.78634 | 21 ft | 23 kts | 39° |
| 2026-05-08 13:56 | 43.36158 | -1.78494 | 21 ft | 19 kts | 41° |
| 2026-05-08 13:56 | 43.36221 | -1.78398 | 22 ft | 6 kts | 348° |
| 2026-05-08 13:56 | 43.36227 | -1.78418 | 22 ft | 3 kts | 272° |
| 2026-05-08 13:56 | 43.36215 | -1.78440 | 22 ft | 0 kts | 217° |
| 2026-05-08 13:57 | 43.36104 | -1.78561 | 21 ft | 50 kts | 218° |
| 2026-05-08 13:57 | 43.35716 | -1.79007 | 81 ft | 87 kts | 222° |
| 2026-05-08 13:58 | 43.35253 | -1.79656 | 269 ft | 105 kts | 224° |
| 2026-05-08 13:58 | 43.34763 | -1.80398 | 620 ft | 106 kts | 225° |
| 2026-05-08 13:58 | 43.34241 | -1.81180 | 789 ft | 118 kts | 226° |
| 2026-05-08 13:58 | 43.33629 | -1.82001 | 1013 ft | 127 kts | 216° |
| 2026-05-08 13:59 | 43.32917 | -1.82778 | 1282 ft | 131 kts | 217° |
| 2026-05-08 13:59 | 43.32245 | -1.83657 | 1574 ft | 136 kts | 221° |
| 2026-05-08 13:59 | 43.31600 | -1.84643 | 1810 ft | 140 kts | 223° |
| 2026-05-08 13:59 | 43.30971 | -1.85640 | 2065 ft | 138 kts | 224° |
| 2026-05-08 14:00 | 43.30342 | -1.86625 | 2341 ft | 136 kts | 222° |
| 2026-05-08 14:00 | 43.29717 | -1.87601 | 2668 ft | 137 kts | 223° |
| 2026-05-08 14:00 | 43.29087 | -1.88588 | 2980 ft | 138 kts | 223° |
| 2026-05-08 14:00 | 43.28533 | -1.89673 | 3247 ft | 140 kts | 234° |
| 2026-05-08 14:01 | 43.28084 | -1.90859 | 3503 ft | 141 kts | 235° |
| 2026-05-08 14:01 | 43.27621 | -1.92056 | 3850 ft | 143 kts | 235° |
| 2026-05-08 14:01 | 43.27154 | -1.93270 | 4160 ft | 146 kts | 238° |
| 2026-05-08 14:01 | 43.27071 | -1.94700 | 4434 ft | 163 kts | 279° |
| 2026-05-08 14:02 | 43.27636 | -1.96096 | 4681 ft | 171 kts | 300° |
| 2026-05-08 14:02 | 43.28367 | -1.97380 | 4912 ft | 170 kts | 301° |
| 2026-05-08 14:02 | 43.29073 | -1.98658 | 5126 ft | 166 kts | 300° |
| 2026-05-08 14:02 | 43.29754 | -1.99917 | 5374 ft | 163 kts | 299° |
| 2026-05-08 14:03 | 43.30142 | -2.01290 | 5624 ft | 150 kts | 266° |
| 2026-05-08 14:03 | 43.30107 | -2.02699 | 5885 ft | 147 kts | 262° |
| 2026-05-08 14:03 | 43.30094 | -2.04103 | 6153 ft | 147 kts | 263° |
| 2026-05-08 14:03 | 43.30100 | -2.05513 | 6428 ft | 149 kts | 264° |
| 2026-05-08 14:04 | 43.30114 | -2.06941 | 6664 ft | 150 kts | 264° |
| 2026-05-08 14:04 | 43.30125 | -2.08374 | 6906 ft | 150 kts | 264° |
| 2026-05-08 14:04 | 43.30137 | -2.09807 | 7139 ft | 150 kts | 264° |
| 2026-05-08 14:04 | 43.30148 | -2.11224 | 7358 ft | 147 kts | 264° |
| 2026-05-08 14:05 | 43.30161 | -2.12619 | 7593 ft | 145 kts | 263° |
| 2026-05-08 14:05 | 43.30164 | -2.13994 | 7839 ft | 143 kts | 263° |
| 2026-05-08 14:05 | 43.30166 | -2.15404 | 7911 ft | 154 kts | 264° |
| 2026-05-08 14:05 | 43.30175 | -2.16923 | 7929 ft | 164 kts | 264° |
| 2026-05-08 14:06 | 43.30189 | -2.18518 | 7927 ft | 170 kts | 265° |
| 2026-05-08 14:06 | 43.30202 | -2.20161 | 7923 ft | 174 kts | 265° |
| 2026-05-08 14:06 | 43.30214 | -2.21843 | 7939 ft | 179 kts | 265° |
| 2026-05-08 14:06 | 43.30231 | -2.23569 | 7934 ft | 182 kts | 266° |
| 2026-05-08 14:07 | 43.30241 | -2.25319 | 7927 ft | 184 kts | 265° |
| 2026-05-08 14:07 | 43.30246 | -2.27076 | 7905 ft | 184 kts | 265° |
| 2026-05-08 14:07 | 43.30256 | -2.28820 | 7896 ft | 182 kts | 265° |
| 2026-05-08 14:07 | 43.30266 | -2.30550 | 7902 ft | 181 kts | 265° |
| 2026-05-08 14:08 | 43.30276 | -2.32271 | 7906 ft | 180 kts | 265° |
| 2026-05-08 14:08 | 43.30287 | -2.33984 | 7923 ft | 179 kts | 265° |
| 2026-05-08 14:08 | 43.30300 | -2.35689 | 7947 ft | 179 kts | 265° |
| 2026-05-08 14:08 | 43.30305 | -2.37408 | 7950 ft | 181 kts | 265° |
| 2026-05-08 14:09 | 43.30311 | -2.39133 | 7929 ft | 179 kts | 265° |
| 2026-05-08 14:09 | 43.30320 | -2.40833 | 7929 ft | 177 kts | 265° |
| 2026-05-08 14:09 | 43.30327 | -2.42540 | 7953 ft | 177 kts | 264° |
| 2026-05-08 14:09 | 43.30337 | -2.44242 | 7952 ft | 179 kts | 265° |
| 2026-05-08 14:10 | 43.30347 | -2.45959 | 7962 ft | 181 kts | 265° |
| 2026-05-08 14:10 | 43.30353 | -2.47695 | 7961 ft | 183 kts | 265° |
| 2026-05-08 14:10 | 43.30356 | -2.49445 | 7948 ft | 184 kts | 264° |
| 2026-05-08 14:10 | 43.30363 | -2.51191 | 7935 ft | 182 kts | 264° |
| 2026-05-08 14:11 | 43.30367 | -2.52927 | 7925 ft | 181 kts | 264° |
| 2026-05-08 14:11 | 43.30374 | -2.54647 | 7937 ft | 180 kts | 265° |
| 2026-05-08 14:11 | 43.30382 | -2.56368 | 7965 ft | 181 kts | 265° |
| 2026-05-08 14:11 | 43.30387 | -2.58110 | 7963 ft | 183 kts | 264° |
| 2026-05-08 14:12 | 43.30389 | -2.59864 | 7953 ft | 184 kts | 265° |
| 2026-05-08 14:12 | 43.30397 | -2.61624 | 7949 ft | 185 kts | 265° |
| 2026-05-08 14:12 | 43.30396 | -2.63382 | 7943 ft | 184 kts | 264° |
| 2026-05-08 14:12 | 43.30391 | -2.65135 | 7946 ft | 184 kts | 264° |
| 2026-05-08 14:13 | 43.30406 | -2.66892 | 7944 ft | 184 kts | 266° |
| 2026-05-08 14:13 | 43.30421 | -2.68645 | 7942 ft | 183 kts | 265° |
| 2026-05-08 14:13 | 43.30421 | -2.70393 | 7942 ft | 184 kts | 265° |
| 2026-05-08 14:13 | 43.30422 | -2.72148 | 7955 ft | 185 kts | 265° |
| 2026-05-08 14:14 | 43.30424 | -2.73920 | 7960 ft | 186 kts | 265° |
| 2026-05-08 14:14 | 43.30431 | -2.75704 | 7944 ft | 186 kts | 265° |
| 2026-05-08 14:14 | 43.30429 | -2.77481 | 7942 ft | 186 kts | 264° |
| 2026-05-08 14:14 | 43.30429 | -2.79254 | 7928 ft | 185 kts | 265° |
| 2026-05-08 14:15 | 43.30434 | -2.81015 | 7949 ft | 185 kts | 265° |
| 2026-05-08 14:15 | 43.30434 | -2.82788 | 7964 ft | 187 kts | 265° |
| 2026-05-08 14:15 | 43.30435 | -2.84581 | 7958 ft | 189 kts | 265° |
| 2026-05-08 14:15 | 43.30436 | -2.86380 | 7941 ft | 188 kts | 265° |
| 2026-05-08 14:16 | 43.30436 | -2.88173 | 7944 ft | 188 kts | 265° |
| 2026-05-08 14:16 | 43.30438 | -2.89963 | 7944 ft | 187 kts | 265° |
| 2026-05-08 14:16 | 43.30440 | -2.91742 | 7930 ft | 186 kts | 265° |
| 2026-05-08 14:16 | 43.30473 | -2.93514 | 7931 ft | 187 kts | 270° |
| 2026-05-08 14:17 | 43.30704 | -2.95282 | 7940 ft | 189 kts | 278° |
| 2026-05-08 14:17 | 43.30989 | -2.97038 | 7938 ft | 188 kts | 276° |
| 2026-05-08 14:17 | 43.31257 | -2.98800 | 7943 ft | 189 kts | 276° |
| 2026-05-08 14:17 | 43.31524 | -3.00564 | 7936 ft | 188 kts | 276° |
| 2026-05-08 14:18 | 43.31791 | -3.02319 | 7938 ft | 188 kts | 276° |
| 2026-05-08 14:18 | 43.32061 | -3.04074 | 7948 ft | 188 kts | 276° |
| 2026-05-08 14:18 | 43.32329 | -3.05833 | 7950 ft | 189 kts | 276° |
| 2026-05-08 14:18 | 43.32599 | -3.07597 | 7942 ft | 189 kts | 277° |
| 2026-05-08 14:19 | 43.32872 | -3.09359 | 7941 ft | 189 kts | 277° |
| 2026-05-08 14:19 | 43.33143 | -3.11121 | 7944 ft | 189 kts | 276° |
| 2026-05-08 14:19 | 43.33411 | -3.12884 | 7944 ft | 189 kts | 277° |
| 2026-05-08 14:19 | 43.33683 | -3.14650 | 7945 ft | 189 kts | 276° |
| 2026-05-08 14:20 | 43.33953 | -3.16420 | 7943 ft | 190 kts | 276° |
| 2026-05-08 14:20 | 43.34223 | -3.18191 | 7943 ft | 189 kts | 276° |
| 2026-05-08 14:20 | 43.34492 | -3.19956 | 7933 ft | 188 kts | 276° |
| 2026-05-08 14:20 | 43.34759 | -3.21713 | 7938 ft | 187 kts | 276° |
| 2026-05-08 14:21 | 43.35027 | -3.23464 | 7941 ft | 187 kts | 276° |
| 2026-05-08 14:21 | 43.35294 | -3.25218 | 7945 ft | 188 kts | 276° |
| 2026-05-08 14:21 | 43.35564 | -3.26994 | 7785 ft | 190 kts | 277° |
| 2026-05-08 14:21 | 43.35836 | -3.28755 | 7556 ft | 186 kts | 277° |
| 2026-05-08 14:22 | 43.36101 | -3.30489 | 7324 ft | 185 kts | 277° |
| 2026-05-08 14:22 | 43.36314 | -3.32191 | 7090 ft | 175 kts | 265° |
| 2026-05-08 14:22 | 43.35985 | -3.33702 | 6865 ft | 162 kts | 238° |
| 2026-05-08 14:22 | 43.35479 | -3.35059 | 6656 ft | 158 kts | 239° |
| 2026-05-08 14:23 | 43.35005 | -3.36401 | 6432 ft | 155 kts | 240° |
| 2026-05-08 14:23 | 43.34540 | -3.37733 | 6235 ft | 155 kts | 240° |
| 2026-05-08 14:23 | 43.34071 | -3.39068 | 6033 ft | 155 kts | 239° |
| 2026-05-08 14:23 | 43.33608 | -3.40369 | 5963 ft | 146 kts | 239° |
| 2026-05-08 14:24 | 43.33180 | -3.41591 | 5960 ft | 139 kts | 239° |
| 2026-05-08 14:24 | 43.32766 | -3.42775 | 5958 ft | 137 kts | 242° |
| 2026-05-08 14:24 | 43.32607 | -3.44064 | 5942 ft | 138 kts | 262° |
| 2026-05-08 14:24 | 43.32763 | -3.45459 | 5535 ft | 164 kts | 284° |
| 2026-05-08 14:25 | 43.33199 | -3.46935 | 5200 ft | 167 kts | 287° |
| 2026-05-08 14:25 | 43.33655 | -3.48382 | 4975 ft | 164 kts | 287° |
| 2026-05-08 14:25 | 43.34097 | -3.49815 | 4773 ft | 163 kts | 286° |
| 2026-05-08 14:25 | 43.34519 | -3.51253 | 4500 ft | 161 kts | 285° |
| 2026-05-08 14:26 | 43.34892 | -3.52672 | 4161 ft | 153 kts | 283° |
| 2026-05-08 14:26 | 43.35232 | -3.54017 | 3990 ft | 146 kts | 283° |
| 2026-05-08 14:26 | 43.35563 | -3.55318 | 3828 ft | 144 kts | 282° |
| 2026-05-08 14:26 | 43.35908 | -3.56601 | 3687 ft | 143 kts | 282° |
| 2026-05-08 14:27 | 43.36257 | -3.57907 | 3500 ft | 145 kts | 283° |
| 2026-05-08 14:27 | 43.36598 | -3.59203 | 3271 ft | 146 kts | 283° |
| 2026-05-08 14:27 | 43.36938 | -3.60436 | 3089 ft | 129 kts | 284° |
| 2026-05-08 14:27 | 43.37257 | -3.61563 | 2942 ft | 122 kts | 283° |
| 2026-05-08 14:28 | 43.37547 | -3.62648 | 2781 ft | 120 kts | 282° |
| 2026-05-08 14:28 | 43.37827 | -3.63725 | 2517 ft | 118 kts | 282° |
| 2026-05-08 14:28 | 43.38086 | -3.64763 | 2338 ft | 112 kts | 283° |
| 2026-05-08 14:28 | 43.38356 | -3.65757 | 2284 ft | 111 kts | 283° |
| 2026-05-08 14:29 | 43.38638 | -3.66771 | 2152 ft | 116 kts | 284° |
| 2026-05-08 14:29 | 43.38925 | -3.67816 | 2017 ft | 118 kts | 283° |
| 2026-05-08 14:29 | 43.39199 | -3.68864 | 1881 ft | 110 kts | 283° |
| 2026-05-08 14:29 | 43.39475 | -3.69797 | 1719 ft | 103 kts | 287° |
| 2026-05-08 14:30 | 43.39774 | -3.70665 | 1584 ft | 97 kts | 283° |
| 2026-05-08 14:30 | 43.40011 | -3.71525 | 1476 ft | 95 kts | 283° |
| 2026-05-08 14:30 | 43.40213 | -3.72373 | 1403 ft | 92 kts | 282° |
| 2026-05-08 14:30 | 43.40420 | -3.73201 | 1303 ft | 92 kts | 283° |
| 2026-05-08 14:31 | 43.40618 | -3.74042 | 1222 ft | 92 kts | 280° |
| 2026-05-08 14:31 | 43.40752 | -3.74596 | 1114 ft | 92 kts | 284° |
| 2026-05-08 14:31 | 43.40952 | -3.75396 | 930 ft | 84 kts | 288° |
| 2026-05-08 14:32 | 43.41315 | -3.76796 | 629 ft | 74 kts | 292° |
| 2026-05-08 14:32 | 43.41499 | -3.77464 | 559 ft | 74 kts | 292° |
| 2026-05-08 14:32 | 43.41675 | -3.78144 | 467 ft | 76 kts | 291° |
| 2026-05-08 14:32 | 43.41857 | -3.78826 | 370 ft | 76 kts | 291° |
| 2026-05-08 14:33 | 43.42042 | -3.79514 | 274 ft | 78 kts | 294° |
| 2026-05-08 14:33 | 43.42233 | -3.80222 | 141 ft | 80 kts | 291° |
| 2026-05-08 14:33 | 43.42417 | -3.80921 | 33 ft | 73 kts | 293° |
| 2026-05-08 14:33 | 43.42562 | -3.81492 | 21 ft | 54 kts | 291° |
| 2026-05-08 14:34 | 43.42685 | -3.81926 | 18 ft | 45 kts | 290° |
| 2026-05-08 14:34 | 43.42747 | -3.82160 | 16 ft | 10 kts | 270° |
| 2026-05-08 14:34 | 43.42715 | -3.82234 | 17 ft | 13 kts | 205° |
| 2026-05-08 14:34 | 43.42664 | -3.82257 | 17 ft | 3 kts | 199° |
| 2026-05-08 14:35 | 43.42640 | -3.82271 | 17 ft | 4 kts | 199° |
| 2026-05-08 14:35 | 43.42576 | -3.82304 | 17 ft | 14 kts | 200° |
| 2026-05-08 14:35 | 43.42509 | -3.82337 | 17 ft | 8 kts | 198° |
| 2026-05-08 14:35 | 43.42468 | -3.82356 | 17 ft | 5 kts | 200° |
| 2026-05-08 14:36 | 43.42444 | -3.82347 | 17 ft | 6 kts | 128° |
| 2026-05-08 14:36 | 43.42428 | -3.82288 | 17 ft | 6 kts | 108° |
| 2026-05-08 14:36 | 43.42414 | -3.82236 | 17 ft | 6 kts | 111° |
| 2026-05-08 14:36 | 43.42399 | -3.82182 | 17 ft | 8 kts | 110° |
| 2026-05-08 14:37 | 43.42408 | -3.82110 | 17 ft | 10 kts | 39° |
| 2026-05-08 14:37 | 43.42467 | -3.82139 | 17 ft | 8 kts | 322° |
| 2026-05-08 14:37 | 43.42480 | -3.82177 | 17 ft | 1 kts | 290° |
| 2026-05-08 14:37 | 43.42482 | -3.82181 | 17 ft | 0 kts | 290° |